Time;durP1;ratioP1;P1;durP2;ratioP2;P2;SDS_P1;SDS_P2;PMS_P1;PMS_P2;Temp;Humidity;BMP_temperature;BMP_pressure;BME280_temperature;BME280_humidity;BME280_pressure;Samples;Min_cycle;Max_cycle;Signal;HPM_P1;HPM_P2
2023/08/31 00:01:03;;;;;;;6.28;2.90;;;;;;;;;;5027201;28;20025;-75
2023/08/31 00:03:29;;;;;;;6.30;2.90;;;;;;;;;;5034924;28;20029;-76
2023/08/31 00:05:54;;;;;;;8.55;2.72;;;;;;;;;;5038374;28;20510;-76
2023/08/31 00:08:22;;;;;;;6.60;2.88;;;;;;;;;;5038423;28;20094;-74
2023/08/31 00:10:54;;;;;;;6.85;3.13;;;;;;;;;;5035624;28;20344;-75
2023/08/31 00:13:19;;;;;;;7.20;2.92;;;;;;;;;;5037819;28;20189;-74
2023/08/31 00:15:46;;;;;;;6.50;2.92;;;;;;;;;;5035323;28;20914;-74
2023/08/31 00:18:12;;;;;;;5.50;2.97;;;;;;;;;;5027162;28;20053;-74
2023/08/31 00:20:38;;;;;;;11.45;3.38;;;;;;;;;;5038014;28;20028;-73
2023/08/31 00:23:03;;;;;;;4.65;2.90;;;;;;;;;;5036433;28;20028;-74
2023/08/31 00:25:28;;;;;;;5.35;3.10;;;;;;;;;;5037019;28;20348;-74
2023/08/31 00:27:54;;;;;;;10.32;2.97;;;;;;;;;;5032401;28;20463;-74
2023/08/31 00:30:20;;;;;;;8.13;3.22;;;;;;;;;;5031229;28;20048;-75
2023/08/31 00:32:47;;;;;;;5.13;3.35;;;;;;;;;;5016892;28;20414;-75
2023/08/31 00:35:12;;;;;;;4.55;2.88;;;;;;;;;;5034419;28;20029;-75
2023/08/31 00:37:38;;;;;;;6.20;3.28;;;;;;;;;;5036658;28;20047;-73
2023/08/31 00:40:04;;;;;;;7.03;3.70;;;;;;;;;;5035946;28;20078;-74
2023/08/31 00:42:30;;;;;;;8.40;3.78;;;;;;;;;;5036813;28;20101;-74
2023/08/31 00:44:55;;;;;;;6.35;3.55;;;;;;;;;;5038300;28;20111;-75
2023/08/31 00:47:21;;;;;;;7.70;2.97;;;;;;;;;;5036068;28;20510;-75
2023/08/31 00:49:47;;;;;;;6.80;3.67;;;;;;;;;;5035574;28;20021;-75
2023/08/31 00:52:13;;;;;;;6.18;3.10;;;;;;;;;;5038340;28;20153;-73
2023/08/31 00:54:38;;;;;;;8.68;3.22;;;;;;;;;;5036804;28;20029;-74
2023/08/31 00:57:04;;;;;;;7.28;3.13;;;;;;;;;;5035986;28;20129;-75
2023/08/31 00:59:29;;;;;;;5.07;2.70;;;;;;;;;;5027425;28;20045;-75
2023/08/31 01:02:03;;;;;;;7.18;3.03;;;;;;;;;;5029843;28;20075;-76
2023/08/31 01:04:31;;;;;;;6.63;2.75;;;;;;;;;;5033275;28;20028;-75
2023/08/31 01:06:56;;;;;;;6.30;2.70;;;;;;;;;;5036394;28;20040;-75
2023/08/31 01:09:31;;;;;;;6.00;2.45;;;;;;;;;;5036530;28;20029;-75
2023/08/31 01:12:04;;;;;;;5.88;2.35;;;;;;;;;;5025974;28;20029;-75
2023/08/31 01:14:38;;;;;;;4.65;2.30;;;;;;;;;;5029841;28;20108;-75
2023/08/31 01:17:04;;;;;;;5.70;2.55;;;;;;;;;;5030176;28;20055;-75
2023/08/31 01:19:44;;;;;;;5.90;2.78;;;;;;;;;;5023837;28;20541;-74
2023/08/31 01:22:13;;;;;;;8.77;3.38;;;;;;;;;;5029771;28;20044;-74
2023/08/31 01:24:39;;;;;;;6.13;3.33;;;;;;;;;;5013298;28;20025;-76
2023/08/31 01:27:05;;;;;;;6.15;2.85;;;;;;;;;;5035397;28;20203;-75
2023/08/31 01:29:30;;;;;;;4.80;2.35;;;;;;;;;;5037532;28;20112;-75
2023/08/31 01:31:56;;;;;;;5.88;2.60;;;;;;;;;;5034432;28;20140;-74
2023/08/31 01:34:21;;;;;;;7.70;2.65;;;;;;;;;;5035766;28;20040;-74
2023/08/31 01:36:48;;;;;;;4.05;2.50;;;;;;;;;;5035206;28;20792;-75
2023/08/31 01:39:26;;;;;;;5.93;2.50;;;;;;;;;;5035849;28;20016;-75
2023/08/31 01:41:55;;;;;;;4.80;2.55;;;;;;;;;;5036659;28;20075;-74
2023/08/31 01:44:21;;;;;;;5.88;2.75;;;;;;;;;;5035686;28;20025;-75
2023/08/31 01:46:47;;;;;;;5.47;2.60;;;;;;;;;;5036119;28;20078;-76
2023/08/31 01:49:14;;;;;;;7.28;3.22;;;;;;;;;;5034604;28;20117;-75
2023/08/31 01:51:39;;;;;;;7.15;2.88;;;;;;;;;;5036010;28;20029;-74
2023/08/31 01:54:04;;;;;;;49.35;44.75;;;;;;;;;;5036240;28;20024;-74
2023/08/31 01:56:30;;;;;;;113.18;103.05;;;;;;;;;;5036281;28;20032;-74
2023/08/31 01:58:55;;;;;;;94.68;86.47;;;;;;;;;;5016819;28;20032;-75
2023/08/31 02:01:20;;;;;;;53.45;48.83;;;;;;;;;;5035489;28;20028;-75
2023/08/31 02:03:46;;;;;;;37.45;34.15;;;;;;;;;;5036761;28;20099;-75
2023/08/31 02:06:11;;;;;;;19.17;17.25;;;;;;;;;;5025420;28;20028;-75
2023/08/31 02:08:36;;;;;;;11.40;10.18;;;;;;;;;;5035380;28;20123;-74
2023/08/31 02:11:02;;;;;;;6.20;4.15;;;;;;;;;;5035626;28;20448;-75
2023/08/31 02:13:28;;;;;;;5.72;2.75;;;;;;;;;;5036718;28;20092;-73
2023/08/31 02:15:53;;;;;;;7.03;2.60;;;;;;;;;;5033046;28;20056;-74
2023/08/31 02:18:19;;;;;;;7.78;2.50;;;;;;;;;;5026503;28;20029;-74
2023/08/31 02:20:44;;;;;;;6.50;2.55;;;;;;;;;;5032534;28;20032;-75
2023/08/31 02:23:11;;;;;;;5.55;2.38;;;;;;;;;;5038007;28;20722;-75
2023/08/31 02:25:37;;;;;;;6.40;2.38;;;;;;;;;;5037952;28;20027;-73
2023/08/31 02:28:02;;;;;;;7.18;2.72;;;;;;;;;;5037878;28;20025;-74
2023/08/31 02:30:28;;;;;;;6.30;2.30;;;;;;;;;;5036993;28;20122;-73
2023/08/31 02:32:53;;;;;;;6.07;2.47;;;;;;;;;;5039028;28;20410;-74
2023/08/31 02:35:18;;;;;;;5.45;2.63;;;;;;;;;;5031660;28;20408;-74
2023/08/31 02:37:43;;;;;;;5.13;2.67;;;;;;;;;;5026091;28;20404;-74
2023/08/31 02:40:09;;;;;;;7.30;2.63;;;;;;;;;;5027779;28;20116;-76
2023/08/31 02:42:35;;;;;;;4.53;2.30;;;;;;;;;;5010737;28;20059;-76
2023/08/31 02:45:00;;;;;;;8.52;2.20;;;;;;;;;;5015200;28;20036;-76
2023/08/31 02:47:26;;;;;;;3.58;2.17;;;;;;;;;;5028785;28;20041;-75
2023/08/31 02:49:51;;;;;;;11.32;3.92;;;;;;;;;;5034114;28;20102;-74
2023/08/31 02:52:16;;;;;;;9.18;3.83;;;;;;;;;;5032176;28;20029;-75
2023/08/31 02:54:43;;;;;;;6.63;3.67;;;;;;;;;;5039555;28;20111;-76
2023/08/31 02:57:08;;;;;;;8.15;3.50;;;;;;;;;;5019376;28;20149;-78
2023/08/31 02:59:35;;;;;;;6.35;3.10;;;;;;;;;;5038863;28;20041;-75
2023/08/31 03:02:04;;;;;;;5.55;3.20;;;;;;;;;;5037493;28;20025;-75
2023/08/31 03:04:29;;;;;;;7.43;4.00;;;;;;;;;;5037867;28;20033;-76
2023/08/31 03:06:54;;;;;;;6.35;3.45;;;;;;;;;;5036788;28;20818;-76
2023/08/31 03:09:20;;;;;;;9.05;3.42;;;;;;;;;;5039149;28;20427;-76
2023/08/31 03:11:45;;;;;;;7.43;3.50;;;;;;;;;;5038253;28;20036;-75
2023/08/31 03:14:11;;;;;;;9.05;3.67;;;;;;;;;;5037070;28;20021;-75
2023/08/31 03:16:36;;;;;;;7.25;3.47;;;;;;;;;;5037590;28;20021;-75
2023/08/31 03:19:02;;;;;;;6.70;3.72;;;;;;;;;;5036586;28;20131;-75
2023/08/31 03:21:27;;;;;;;6.40;4.32;;;;;;;;;;5038068;28;20016;-76
2023/08/31 03:23:52;;;;;;;8.27;4.03;;;;;;;;;;5037157;28;20420;-76
2023/08/31 03:26:17;;;;;;;7.25;4.40;;;;;;;;;;5039430;28;20091;-76
2023/08/31 03:28:43;;;;;;;5.25;4.00;;;;;;;;;;5037837;28;20057;-77
2023/08/31 03:31:08;;;;;;;5.60;4.10;;;;;;;;;;5037784;28;20022;-76
2023/08/31 03:33:34;;;;;;;7.30;4.10;;;;;;;;;;5036525;28;20100;-75
2023/08/31 03:36:00;;;;;;;9.52;4.25;;;;;;;;;;5035758;28;20013;-76
2023/08/31 03:38:26;;;;;;;6.93;3.85;;;;;;;;;;5037040;28;20057;-75
2023/08/31 03:40:57;;;;;;;7.60;4.18;;;;;;;;;;5039945;28;20206;-75
2023/08/31 03:43:22;;;;;;;6.88;4.00;;;;;;;;;;5036275;28;20025;-75
2023/08/31 03:45:49;;;;;;;7.47;4.60;;;;;;;;;;5029036;28;20463;-76
2023/08/31 03:48:14;;;;;;;5.60;3.97;;;;;;;;;;5006772;28;20076;-75
2023/08/31 03:50:39;;;;;;;9.48;4.68;;;;;;;;;;5022000;28;20432;-76
2023/08/31 03:53:05;;;;;;;7.53;4.30;;;;;;;;;;5025114;28;20033;-75
2023/08/31 03:55:30;;;;;;;8.18;4.55;;;;;;;;;;5024132;28;20025;-74
2023/08/31 03:57:55;;;;;;;8.13;4.30;;;;;;;;;;5026354;28;20029;-74
2023/08/31 04:00:21;;;;;;;5.47;3.10;;;;;;;;;;5024212;28;20043;-74
2023/08/31 04:02:46;;;;;;;6.80;2.55;;;;;;;;;;5025611;28;20385;-75
2023/08/31 04:05:13;;;;;;;5.45;2.47;;;;;;;;;;5025058;28;24030;-74
2023/08/31 04:07:39;;;;;;;4.88;3.00;;;;;;;;;;5025314;28;20544;-75
2023/08/31 04:10:04;;;;;;;4.65;2.60;;;;;;;;;;5025212;28;20071;-75
2023/08/31 04:12:30;;;;;;;8.85;3.47;;;;;;;;;;5008033;28;20082;-75
2023/08/31 04:14:56;;;;;;;5.75;2.78;;;;;;;;;;5025324;28;20032;-74
2023/08/31 04:17:21;;;;;;;6.25;3.53;;;;;;;;;;5037648;28;20459;-74
2023/08/31 04:19:46;;;;;;;6.93;3.30;;;;;;;;;;5038526;28;20056;-75
2023/08/31 04:22:12;;;;;;;36.60;33.00;;;;;;;;;;5035655;28;20115;-74
2023/08/31 04:24:37;;;;;;;46.10;42.00;;;;;;;;;;5035761;28;20119;-76
2023/08/31 04:27:02;;;;;;;18.45;16.67;;;;;;;;;;5026534;28;20048;-76
2023/08/31 04:29:28;;;;;;;10.20;6.70;;;;;;;;;;5024608;28;20186;-75
2023/08/31 04:31:54;;;;;;;6.63;4.32;;;;;;;;;;5024373;28;20024;-76
2023/08/31 04:34:19;;;;;;;7.97;4.20;;;;;;;;;;5035573;28;20028;-74
2023/08/31 04:36:45;;;;;;;10.40;7.80;;;;;;;;;;5017579;28;21160;-74
2023/08/31 04:39:10;;;;;;;8.20;7.03;;;;;;;;;;5026174;28;20064;-76
2023/08/31 04:41:36;;;;;;;8.02;7.22;;;;;;;;;;5015974;28;20029;-74
2023/08/31 04:44:01;;;;;;;8.48;6.80;;;;;;;;;;5029854;28;20047;-75
2023/08/31 04:46:26;;;;;;;8.25;6.53;;;;;;;;;;5023016;28;20104;-76
2023/08/31 04:48:52;;;;;;;10.32;6.38;;;;;;;;;;5007742;28;20434;-75
2023/08/31 04:51:28;;;;;;;8.68;5.20;;;;;;;;;;5030305;28;20086;-74
2023/08/31 04:53:53;;;;;;;7.07;4.38;;;;;;;;;;5007177;28;20108;-73
2023/08/31 04:56:18;;;;;;;9.00;4.78;;;;;;;;;;5032243;28;20025;-76
2023/08/31 04:58:43;;;;;;;6.88;5.30;;;;;;;;;;5036754;28;20033;-77
2023/08/31 05:01:09;;;;;;;13.18;4.63;;;;;;;;;;5035375;28;20112;-75
2023/08/31 05:03:34;;;;;;;6.28;4.20;;;;;;;;;;5036733;28;20067;-78
2023/08/31 05:06:00;;;;;;;5.45;4.07;;;;;;;;;;5037045;28;20360;-77
2023/08/31 05:08:25;;;;;;;6.93;4.50;;;;;;;;;;5037562;28;20037;-75
2023/08/31 05:10:50;;;;;;;8.38;4.43;;;;;;;;;;5038121;28;20146;-78
2023/08/31 05:13:16;;;;;;;6.60;3.55;;;;;;;;;;5038564;28;20064;-77
2023/08/31 05:15:41;;;;;;;3.67;2.92;;;;;;;;;;5037848;28;20033;-77
2023/08/31 05:18:08;;;;;;;6.93;3.72;;;;;;;;;;5037422;28;20036;-79
2023/08/31 05:20:34;;;;;;;7.53;3.60;;;;;;;;;;5038909;28;20021;-76
2023/08/31 05:22:59;;;;;;;5.80;2.67;;;;;;;;;;5037060;28;20454;-78
2023/08/31 05:25:24;;;;;;;7.72;2.75;;;;;;;;;;5038310;28;20029;-76
2023/08/31 05:27:50;;;;;;;7.20;2.80;;;;;;;;;;5023758;28;20033;-77
2023/08/31 05:30:15;;;;;;;7.90;2.90;;;;;;;;;;5035875;28;20035;-78
2023/08/31 05:32:40;;;;;;;7.75;2.53;;;;;;;;;;5037553;28;20432;-78
2023/08/31 05:35:06;;;;;;;7.20;2.85;;;;;;;;;;5038264;28;20025;-77
2023/08/31 05:37:32;;;;;;;5.30;2.63;;;;;;;;;;5039266;28;20025;-76
2023/08/31 05:39:58;;;;;;;4.85;2.28;;;;;;;;;;5037528;28;20028;-78
2023/08/31 05:42:23;;;;;;;15.98;3.15;;;;;;;;;;5036196;28;20355;-75
2023/08/31 05:44:49;;;;;;;5.32;2.53;;;;;;;;;;5038478;28;20300;-74
2023/08/31 05:47:14;;;;;;;7.75;2.70;;;;;;;;;;5037772;28;20124;-75
2023/08/31 05:49:39;;;;;;;5.15;2.70;;;;;;;;;;5037416;28;20079;-73
2023/08/31 05:52:05;;;;;;;5.43;2.63;;;;;;;;;;5036564;28;20026;-74
2023/08/31 05:54:31;;;;;;;5.10;2.67;;;;;;;;;;5036919;28;20025;-77
2023/08/31 05:56:56;;;;;;;6.15;2.28;;;;;;;;;;5038224;28;20166;-76
2023/08/31 05:59:22;;;;;;;5.80;2.60;;;;;;;;;;5040035;28;20037;-73
2023/08/31 06:01:47;;;;;;;5.57;2.30;;;;;;;;;;5038950;28;20037;-73
2023/08/31 06:04:12;;;;;;;5.32;2.38;;;;;;;;;;5040934;28;20099;-74
2023/08/31 06:06:38;;;;;;;6.43;2.40;;;;;;;;;;5039401;28;20028;-73
2023/08/31 06:09:04;;;;;;;4.43;2.33;;;;;;;;;;5040763;28;20039;-72
2023/08/31 06:11:29;;;;;;;6.78;2.30;;;;;;;;;;5036581;28;20037;-73
2023/08/31 06:13:55;;;;;;;6.10;2.55;;;;;;;;;;5033826;28;20025;-72
2023/08/31 06:16:20;;;;;;;6.90;2.30;;;;;;;;;;5040588;28;20025;-73
2023/08/31 06:18:45;;;;;;;10.63;3.25;;;;;;;;;;5039749;28;20048;-75
2023/08/31 06:21:11;;;;;;;4.90;2.40;;;;;;;;;;5041300;28;20413;-74
2023/08/31 06:23:36;;;;;;;6.05;2.78;;;;;;;;;;5039035;28;20414;-73
2023/08/31 06:26:01;;;;;;;6.25;2.60;;;;;;;;;;5020744;28;20501;-76
2023/08/31 06:28:27;;;;;;;6.65;2.70;;;;;;;;;;5039789;28;20033;-73
2023/08/31 06:30:52;;;;;;;6.13;2.70;;;;;;;;;;5040618;28;20028;-73
2023/08/31 06:33:18;;;;;;;6.35;2.75;;;;;;;;;;5040208;28;20096;-75
2023/08/31 06:35:48;;;;;;;4.22;2.67;;;;;;;;;;5039034;28;20025;-75
2023/08/31 06:38:14;;;;;;;4.82;2.80;;;;;;;;;;5038763;28;20021;-73
2023/08/31 06:40:39;;;;;;;3.63;2.38;;;;;;;;;;5034964;28;20375;-73
2023/08/31 06:43:04;;;;;;;8.73;2.80;;;;;;;;;;5039126;28;20036;-75
2023/08/31 06:45:30;;;;;;;4.45;2.55;;;;;;;;;;5037005;28;20028;-73
2023/08/31 06:47:55;;;;;;;4.03;2.22;;;;;;;;;;5038594;28;20344;-72
2023/08/31 06:50:20;;;;;;;6.50;3.10;;;;;;;;;;5036550;28;20029;-72
2023/08/31 06:52:46;;;;;;;5.53;2.60;;;;;;;;;;5039977;28;20025;-72
2023/08/31 06:55:11;;;;;;;4.03;2.75;;;;;;;;;;5039498;28;20044;-74
2023/08/31 06:57:37;;;;;;;5.97;2.85;;;;;;;;;;5037656;28;20127;-72
2023/08/31 07:00:03;;;;;;;5.90;2.88;;;;;;;;;;5036566;28;20503;-76
2023/08/31 07:02:29;;;;;;;6.63;3.00;;;;;;;;;;5037263;28;20037;-73
2023/08/31 07:04:54;;;;;;;5.60;2.90;;;;;;;;;;5029103;28;20021;-72
2023/08/31 07:07:19;;;;;;;7.88;2.85;;;;;;;;;;5037159;28;20420;-73
2023/08/31 07:09:46;;;;;;;6.15;2.90;;;;;;;;;;5039017;28;20458;-73
2023/08/31 07:12:11;;;;;;;6.85;3.40;;;;;;;;;;5037969;28;20441;-73
2023/08/31 07:14:36;;;;;;;8.10;3.42;;;;;;;;;;5038136;28;20029;-75
2023/08/31 07:17:02;;;;;;;8.80;3.20;;;;;;;;;;5037692;28;20062;-73
2023/08/31 07:19:27;;;;;;;7.60;2.88;;;;;;;;;;5039968;28;20163;-72
2023/08/31 07:21:54;;;;;;;4.57;2.83;;;;;;;;;;5037907;28;20029;-75
2023/08/31 07:24:20;;;;;;;6.47;3.00;;;;;;;;;;5038129;28;20020;-73
2023/08/31 07:26:45;;;;;;;4.45;2.90;;;;;;;;;;5038173;28;20028;-75
2023/08/31 07:29:10;;;;;;;8.60;3.00;;;;;;;;;;5038151;28;20112;-73
2023/08/31 07:31:36;;;;;;;4.80;3.05;;;;;;;;;;5039088;28;20032;-72
2023/08/31 07:34:03;;;;;;;7.55;3.83;;;;;;;;;;5038762;28;20025;-74
2023/08/31 07:36:28;;;;;;;7.03;3.85;;;;;;;;;;5039083;28;20029;-72
2023/08/31 07:38:54;;;;;;;5.30;2.80;;;;;;;;;;5039153;28;20035;-72
2023/08/31 07:41:19;;;;;;;8.38;2.72;;;;;;;;;;5038819;28;20062;-73
2023/08/31 07:43:44;;;;;;;6.93;3.08;;;;;;;;;;5039356;28;20112;-72
2023/08/31 07:46:10;;;;;;;6.25;3.25;;;;;;;;;;5039678;28;20071;-71
2023/08/31 07:48:35;;;;;;;6.28;3.25;;;;;;;;;;5038740;28;20079;-70
2023/08/31 07:51:00;;;;;;;6.05;3.30;;;;;;;;;;5039068;28;20032;-74
2023/08/31 07:53:26;;;;;;;5.25;3.13;;;;;;;;;;5038329;28;20029;-73
2023/08/31 07:55:54;;;;;;;4.80;2.75;;;;;;;;;;5039481;28;20036;-74
2023/08/31 07:58:19;;;;;;;25.83;13.95;;;;;;;;;;5037818;28;20118;-74
2023/08/31 08:00:45;;;;;;;9.63;4.68;;;;;;;;;;5038774;28;20075;-72
2023/08/31 08:03:11;;;;;;;6.90;3.25;;;;;;;;;;5039828;28;20405;-74
2023/08/31 08:05:37;;;;;;;5.57;2.90;;;;;;;;;;5038877;28;20032;-76
2023/08/31 08:08:02;;;;;;;6.78;3.15;;;;;;;;;;5037180;28;20470;-72
2023/08/31 08:10:28;;;;;;;5.25;3.20;;;;;;;;;;5037427;28;20029;-72
2023/08/31 08:12:53;;;;;;;6.85;3.25;;;;;;;;;;5038836;28;20021;-71
2023/08/31 08:15:18;;;;;;;6.53;3.35;;;;;;;;;;5035586;28;20118;-75
2023/08/31 08:17:44;;;;;;;7.93;3.85;;;;;;;;;;5036694;28;20094;-74
2023/08/31 08:20:10;;;;;;;5.65;3.20;;;;;;;;;;5034619;28;20029;-74
2023/08/31 08:22:35;;;;;;;5.30;3.40;;;;;;;;;;5020400;28;20035;-72
2023/08/31 08:25:02;;;;;;;6.97;2.97;;;;;;;;;;5024620;28;20032;-74
2023/08/31 08:27:27;;;;;;;5.88;3.70;;;;;;;;;;5020945;28;20028;-74
2023/08/31 08:29:53;;;;;;;6.95;2.95;;;;;;;;;;5025484;28;20106;-72
2023/08/31 08:32:18;;;;;;;6.97;3.50;;;;;;;;;;5023260;28;20021;-74
2023/08/31 08:34:44;;;;;;;5.47;3.25;;;;;;;;;;5029082;28;20020;-74
2023/08/31 08:37:09;;;;;;;6.63;4.35;;;;;;;;;;5035207;28;20452;-72
2023/08/31 08:39:34;;;;;;;12.77;4.40;;;;;;;;;;5034849;28;20351;-75
2023/08/31 08:42:02;;;;;;;11.68;5.88;;;;;;;;;;5027704;28;20398;-73
2023/08/31 08:44:31;;;;;;;7.85;4.57;;;;;;;;;;5022652;28;20033;-76
2023/08/31 08:46:57;;;;;;;10.68;4.60;;;;;;;;;;5018540;28;21061;-74
2023/08/31 08:49:23;;;;;;;6.25;3.55;;;;;;;;;;5019910;28;20466;-73
2023/08/31 08:51:50;;;;;;;6.22;3.35;;;;;;;;;;5020160;28;20123;-74
2023/08/31 08:54:16;;;;;;;5.38;2.95;;;;;;;;;;5027677;28;20662;-76
2023/08/31 08:56:41;;;;;;;7.20;4.40;;;;;;;;;;5021817;28;20107;-73
2023/08/31 08:59:07;;;;;;;7.30;3.85;;;;;;;;;;5020754;28;20083;-76
2023/08/31 09:01:34;;;;;;;4.78;2.78;;;;;;;;;;5019939;28;20131;-75
2023/08/31 09:04:00;;;;;;;8.43;3.50;;;;;;;;;;5021970;28;20028;-75
2023/08/31 09:06:27;;;;;;;5.95;3.30;;;;;;;;;;5021082;28;20021;-77
2023/08/31 09:08:56;;;;;;;6.38;3.40;;;;;;;;;;5017289;28;20033;-77
2023/08/31 09:11:22;;;;;;;5.68;3.33;;;;;;;;;;5018272;28;20017;-75
2023/08/31 09:13:48;;;;;;;6.50;3.58;;;;;;;;;;5014731;28;20040;-74
2023/08/31 09:16:23;;;;;;;7.50;4.13;;;;;;;;;;5021185;28;20022;-76
2023/08/31 09:18:49;;;;;;;5.70;3.58;;;;;;;;;;5016025;28;20397;-77
2023/08/31 09:21:14;;;;;;;8.10;3.30;;;;;;;;;;5036148;28;20111;-76
2023/08/31 09:23:39;;;;;;;6.95;3.40;;;;;;;;;;5037885;28;20444;-76
2023/08/31 09:26:05;;;;;;;4.60;3.28;;;;;;;;;;5036830;28;20078;-76
2023/08/31 09:28:30;;;;;;;4.93;2.63;;;;;;;;;;5036416;28;20106;-75
2023/08/31 09:31:04;;;;;;;5.13;3.38;;;;;;;;;;5036490;28;20106;-76
2023/08/31 09:33:30;;;;;;;6.65;3.60;;;;;;;;;;5040618;28;20029;-75
2023/08/31 09:36:03;;;;;;;6.45;3.90;;;;;;;;;;5039427;28;20029;-74
2023/08/31 09:38:29;;;;;;;5.35;3.40;;;;;;;;;;5040969;28;20064;-74
2023/08/31 09:41:21;;;;;;;6.50;3.55;;;;;;;;;;5040879;28;20052;-74
2023/08/31 09:43:46;;;;;;;7.20;3.80;;;;;;;;;;5036743;28;20147;-75
2023/08/31 09:46:13;;;;;;;6.25;3.72;;;;;;;;;;5040975;28;20119;-76
2023/08/31 09:48:39;;;;;;;6.25;3.10;;;;;;;;;;5039624;28;20064;-76
2023/08/31 09:51:05;;;;;;;4.72;2.83;;;;;;;;;;5040499;28;20021;-75
2023/08/31 09:53:31;;;;;;;5.15;2.88;;;;;;;;;;5042224;28;20028;-75
2023/08/31 09:55:57;;;;;;;4.30;2.65;;;;;;;;;;5021297;28;20074;-75
2023/08/31 09:58:23;;;;;;;4.70;3.10;;;;;;;;;;5040277;28;20025;-74
2023/08/31 10:00:49;;;;;;;4.50;2.58;;;;;;;;;;5041312;28;20082;-75
2023/08/31 10:03:15;;;;;;;4.35;2.95;;;;;;;;;;5040769;28;20021;-76
2023/08/31 10:05:42;;;;;;;6.32;3.08;;;;;;;;;;5041106;28;20659;-76
2023/08/31 10:08:08;;;;;;;9.32;3.47;;;;;;;;;;5040233;28;20025;-77
2023/08/31 10:10:34;;;;;;;6.60;3.33;;;;;;;;;;5038593;28;20392;-76
2023/08/31 10:13:00;;;;;;;4.25;2.60;;;;;;;;;;5040794;28;20033;-76
2023/08/31 10:15:30;;;;;;;7.47;3.78;;;;;;;;;;5039759;28;20033;-76
2023/08/31 10:17:55;;;;;;;7.35;3.22;;;;;;;;;;5041781;28;20017;-76
2023/08/31 10:20:20;;;;;;;11.30;3.80;;;;;;;;;;5041144;28;20466;-75
2023/08/31 10:22:46;;;;;;;12.65;4.35;;;;;;;;;;5038295;28;20033;-76
2023/08/31 10:25:11;;;;;;;6.60;3.95;;;;;;;;;;5030635;28;20036;-76
2023/08/31 10:27:37;;;;;;;4.55;3.08;;;;;;;;;;5035079;28;20056;-75
2023/08/31 10:30:16;;;;;;;7.03;3.65;;;;;;;;;;5041640;28;20029;-75
2023/08/31 10:32:42;;;;;;;5.80;3.10;;;;;;;;;;5039682;28;20025;-76
2023/08/31 10:35:08;;;;;;;3.33;3.00;;;;;;;;;;5041544;28;20096;-76
2023/08/31 10:37:33;;;;;;;7.82;3.30;;;;;;;;;;5041143;28;20435;-79
2023/08/31 10:40:11;;;;;;;5.28;3.25;;;;;;;;;;5040266;28;20020;-75
2023/08/31 10:42:47;;;;;;;6.90;2.88;;;;;;;;;;5035608;28;20025;-76
2023/08/31 10:45:12;;;;;;;3.67;2.67;;;;;;;;;;5029436;28;20558;-78
2023/08/31 10:47:39;;;;;;;4.88;2.67;;;;;;;;;;5017087;28;20135;-76
2023/08/31 10:50:21;;;;;;;4.82;3.40;;;;;;;;;;5039569;28;20214;-77
2023/08/31 10:52:47;;;;;;;5.35;2.67;;;;;;;;;;5038638;28;20436;-76
2023/08/31 10:55:13;;;;;;;4.53;2.80;;;;;;;;;;5038875;28;20040;-76
2023/08/31 10:57:40;;;;;;;3.30;2.78;;;;;;;;;;5038233;28;20029;-76
2023/08/31 11:00:06;;;;;;;3.17;2.53;;;;;;;;;;5039490;28;20094;-77
2023/08/31 11:02:35;;;;;;;4.25;2.65;;;;;;;;;;5039648;28;20025;-76
2023/08/31 11:05:05;;;;;;;2.85;2.55;;;;;;;;;;5039188;28;20025;-76
2023/08/31 11:07:30;;;;;;;4.88;2.60;;;;;;;;;;5039359;28;20330;-75
2023/08/31 11:10:11;;;;;;;4.38;2.70;;;;;;;;;;5037491;28;20032;-76
2023/08/31 11:12:37;;;;;;;7.70;3.22;;;;;;;;;;5040166;28;20383;-77
2023/08/31 11:15:03;;;;;;;6.53;2.80;;;;;;;;;;5039739;28;20022;-77
2023/08/31 11:17:29;;;;;;;8.30;2.97;;;;;;;;;;5036949;28;20031;-75
2023/08/31 11:19:54;;;;;;;6.10;3.10;;;;;;;;;;5038015;28;20136;-77
2023/08/31 11:22:19;;;;;;;4.35;2.70;;;;;;;;;;5036655;28;20332;-77
2023/08/31 11:24:46;;;;;;;2.85;2.33;;;;;;;;;;5026137;28;20096;-75
2023/08/31 11:27:11;;;;;;;4.70;2.53;;;;;;;;;;5022155;28;20037;-77
2023/08/31 11:29:38;;;;;;;6.30;3.22;;;;;;;;;;5033257;28;20026;-75
2023/08/31 11:32:03;;;;;;;9.18;3.15;;;;;;;;;;5039740;28;20090;-76
2023/08/31 11:34:29;;;;;;;5.22;3.17;;;;;;;;;;5040710;28;20387;-75
2023/08/31 11:36:54;;;;;;;6.82;3.35;;;;;;;;;;5038751;28;20108;-75
2023/08/31 11:39:19;;;;;;;6.68;3.30;;;;;;;;;;5033228;28;20063;-76
2023/08/31 11:41:45;;;;;;;5.28;3.25;;;;;;;;;;5021512;28;20043;-77
2023/08/31 11:44:12;;;;;;;3.97;2.58;;;;;;;;;;5020394;28;20315;-77
2023/08/31 11:46:39;;;;;;;5.13;3.45;;;;;;;;;;5030050;28;20959;-76
2023/08/31 11:49:05;;;;;;;7.93;4.43;;;;;;;;;;5037944;28;20077;-76
2023/08/31 11:51:32;;;;;;;11.40;6.00;;;;;;;;;;5039108;28;20028;-76
2023/08/31 11:53:59;;;;;;;20.60;9.32;;;;;;;;;;5036698;28;20033;-77
2023/08/31 11:56:24;;;;;;;7.75;4.57;;;;;;;;;;5028044;28;20037;-77
2023/08/31 11:58:50;;;;;;;11.32;4.25;;;;;;;;;;5037628;28;20087;-76
2023/08/31 12:01:23;;;;;;;6.00;3.83;;;;;;;;;;5037854;28;20881;-79
2023/08/31 12:03:48;;;;;;;6.97;4.93;;;;;;;;;;5039480;28;20025;-77
2023/08/31 12:06:20;;;;;;;4.65;3.90;;;;;;;;;;5038556;28;20352;-77
2023/08/31 12:08:46;;;;;;;4.90;4.10;;;;;;;;;;5040109;28;20025;-78
2023/08/31 12:11:11;;;;;;;10.35;9.20;;;;;;;;;;5038010;28;20399;-76
2023/08/31 12:13:36;;;;;;;6.63;4.20;;;;;;;;;;5039660;28;20440;-76
2023/08/31 12:16:04;;;;;;;4.63;3.90;;;;;;;;;;5038469;28;20064;-78
2023/08/31 12:18:31;;;;;;;5.40;3.55;;;;;;;;;;5038454;28;20439;-79
2023/08/31 12:20:58;;;;;;;6.78;4.20;;;;;;;;;;5036686;28;20111;-78
2023/08/31 12:23:23;;;;;;;5.50;3.17;;;;;;;;;;5036749;28;20436;-77
2023/08/31 12:25:49;;;;;;;4.90;3.97;;;;;;;;;;5038548;28;20035;-77
2023/08/31 12:28:15;;;;;;;4.95;3.58;;;;;;;;;;5040093;28;20025;-80
2023/08/31 12:30:46;;;;;;;5.47;3.40;;;;;;;;;;5035528;28;20444;-76
2023/08/31 12:33:12;;;;;;;5.13;3.88;;;;;;;;;;5036258;28;21224;-76
2023/08/31 12:35:38;;;;;;;5.07;3.58;;;;;;;;;;5034817;28;20025;-74
2023/08/31 12:38:03;;;;;;;6.32;3.85;;;;;;;;;;5029138;28;20108;-76
2023/08/31 12:40:29;;;;;;;9.02;4.28;;;;;;;;;;5037619;28;20041;-78
2023/08/31 12:42:54;;;;;;;4.05;3.08;;;;;;;;;;5037537;28;20021;-77
2023/08/31 12:45:20;;;;;;;4.78;3.22;;;;;;;;;;5035511;28;20025;-77
2023/08/31 12:47:45;;;;;;;4.50;2.90;;;;;;;;;;5037205;28;20063;-78
2023/08/31 12:50:10;;;;;;;4.70;3.25;;;;;;;;;;5026921;28;20063;-77
2023/08/31 12:52:36;;;;;;;8.15;5.68;;;;;;;;;;5033341;28;20424;-74
2023/08/31 12:55:01;;;;;;;7.40;3.80;;;;;;;;;;5023860;28;20092;-76
2023/08/31 12:57:27;;;;;;;50.65;28.15;;;;;;;;;;5019475;28;20482;-76
2023/08/31 12:59:52;;;;;;;38.25;19.13;;;;;;;;;;5021418;28;20064;-77
2023/08/31 13:02:19;;;;;;;9.05;5.65;;;;;;;;;;5001526;28;20034;-78
2023/08/31 13:04:45;;;;;;;4.55;3.45;;;;;;;;;;5024424;28;20463;-75
2023/08/31 13:07:10;;;;;;;6.32;3.50;;;;;;;;;;5022730;28;20036;-75
2023/08/31 13:09:35;;;;;;;6.72;4.18;;;;;;;;;;5038205;28;20080;-76
2023/08/31 13:12:01;;;;;;;5.43;4.22;;;;;;;;;;5004408;28;20037;-77
2023/08/31 13:14:26;;;;;;;5.05;3.00;;;;;;;;;;5023513;28;20021;-75
2023/08/31 13:16:51;;;;;;;4.88;3.10;;;;;;;;;;5023977;28;20789;-74
2023/08/31 13:19:17;;;;;;;5.40;3.97;;;;;;;;;;5023945;28;20470;-73
2023/08/31 13:21:42;;;;;;;4.65;3.20;;;;;;;;;;5022377;28;20510;-74
2023/08/31 13:24:08;;;;;;;9.05;6.15;;;;;;;;;;5020819;28;20037;-73
2023/08/31 13:26:33;;;;;;;8.82;6.18;;;;;;;;;;5021549;28;20025;-77
2023/08/31 13:28:58;;;;;;;7.00;5.25;;;;;;;;;;5005574;28;20037;-77
2023/08/31 13:31:24;;;;;;;14.82;11.00;;;;;;;;;;5034515;28;20111;-78
2023/08/31 13:33:49;;;;;;;7.82;4.50;;;;;;;;;;5008351;28;20030;-77
2023/08/31 13:36:15;;;;;;;7.85;4.95;;;;;;;;;;5038826;28;20347;-75
2023/08/31 13:38:40;;;;;;;12.77;10.73;;;;;;;;;;5038696;28;20028;-77
2023/08/31 13:41:07;;;;;;;9.50;6.30;;;;;;;;;;5037164;28;20321;-79
2023/08/31 13:43:32;;;;;;;9.15;4.85;;;;;;;;;;5037374;28;20025;-78
2023/08/31 13:45:57;;;;;;;6.80;5.10;;;;;;;;;;5035017;28;21905;-79
2023/08/31 13:48:23;;;;;;;7.07;3.90;;;;;;;;;;5033061;28;20108;-80
2023/08/31 13:50:48;;;;;;;5.38;3.67;;;;;;;;;;5035046;28;20029;-76
2023/08/31 13:53:14;;;;;;;8.82;5.57;;;;;;;;;;5035109;28;20024;-78
2023/08/31 13:55:39;;;;;;;4.82;3.40;;;;;;;;;;5021108;28;20029;-76
2023/08/31 13:58:08;;;;;;;4.25;3.45;;;;;;;;;;5023780;28;20045;-77
2023/08/31 14:00:33;;;;;;;;;;;;;;;;;;5023788;28;20028;-79
2023/08/31 14:03:02;;;;;;;3.97;2.80;;;;;;;;;;5019760;28;19928;-75
2023/08/31 14:05:27;;;;;;;;;;;;;;;;;;5021760;28;20326;-75
2023/08/31 14:07:53;;;;;;;7.47;2.93;;;;;;;;;;5024170;28;20331;-76
2023/08/31 14:10:18;;;;;;;5.65;3.22;;;;;;;;;;5021767;28;20021;-76
2023/08/31 14:12:46;;;;;;;5.97;3.25;;;;;;;;;;5021381;28;20428;-74
2023/08/31 14:15:11;;;;;;;6.15;3.42;;;;;;;;;;5021495;28;20050;-78
2023/08/31 14:17:36;;;;;;;5.00;3.33;;;;;;;;;;5021251;28;20029;-76
2023/08/31 14:20:05;;;;;;;6.30;3.35;;;;;;;;;;5008789;28;20033;-78
2023/08/31 14:22:31;;;;;;;7.47;3.70;;;;;;;;;;5025221;28;20827;-77
2023/08/31 14:24:56;;;;;;;5.10;3.35;;;;;;;;;;5026143;28;20364;-77
2023/08/31 14:27:23;;;;;;;5.80;3.20;;;;;;;;;;5026674;28;20053;-78
2023/08/31 14:29:48;;;;;;;10.30;6.32;;;;;;;;;;5023725;28;20059;-76
2023/08/31 14:32:13;;;;;;;14.48;12.23;;;;;;;;;;5026947;28;20065;-76
2023/08/31 14:34:39;;;;;;;7.05;6.35;;;;;;;;;;5025003;28;20087;-75